Time;durP1;ratioP1;P1;durP2;ratioP2;P2;SDS_P1;SDS_P2;PMS_P1;PMS_P2;Temp;Humidity;BMP_temperature;BMP_pressure;BME280_temperature;BME280_humidity;BME280_pressure;Samples;Min_cycle;Max_cycle;Signal;HPM_P1;HPM_P2
2023/05/30 00:00:54;;;;;;;8.6;4.8;;;;;;;12.26;76.19531;939.0009;;;;
2023/05/30 00:03:27;;;;;;;9.9;4.7;;;;;;;12.25;75.67773;939.0057;;;;
2023/05/30 00:05:56;;;;;;;9.3;4.8;;;;;;;11.99;76.46875;939.0159;;;;
2023/05/30 00:08:21;;;;;;;10.2;5.2;;;;;;;11.94;76.60938;939.026;;;;
2023/05/30 00:10:52;;;;;;;7.4;4.6;;;;;;;11.95;76.83984;939.1099;;;;
2023/05/30 00:13:19;;;;;;;7.5;4.6;;;;;;;11.99;76.65137;939.0813;;;;
2023/05/30 00:15:44;;;;;;;7.8;4.6;;;;;;;11.88;76.73535;939.0935;;;;
2023/05/30 00:18:13;;;;;;;9.1;5.2;;;;;;;11.85;77.02832;939.0048;;;;
2023/05/30 00:20:38;;;;;;;7.6;4.9;;;;;;;11.8;77.90039;939.0073;;;;
2023/05/30 00:23:04;;;;;;;6.9;5;;;;;;;11.87;77.35449;939.0176;;;;
2023/05/30 00:25:32;;;;;;;7.9;4.8;;;;;;;11.87;77.66211;938.9945;;;;
2023/05/30 00:27:55;;;;;;;7.6;4.9;;;;;;;11.87;77.71875;939.0385;;;;
2023/05/30 00:30:23;;;;;;;8.7;5.5;;;;;;;11.87;77.21484;939.0017;;;;
2023/05/30 00:32:48;;;;;;;7.6;4.7;;;;;;;11.85;76.98242;939.028;;;;
2023/05/30 00:35:17;;;;;;;8.5;4.8;;;;;;;11.77;77.64355;939.0308;;;;
2023/05/30 00:37:44;;;;;;;6.5;4.4;;;;;;;11.74;77.4541;939.0378;;;;
2023/05/30 00:40:09;;;;;;;8.6;4.9;;;;;;;11.77;77.02539;939.0181;;;;
2023/05/30 00:42:36;;;;;;;6.6;4.8;;;;;;;11.82;76.98926;939.058;;;;
2023/05/30 00:45:01;;;;;;;6.9;5.1;;;;;;;11.82;76.45117;939.1252;;;;
2023/05/30 00:47:27;;;;;;;6.1;4.7;;;;;;;11.88;76.2207;939.0967;;;;
2023/05/30 00:49:52;;;;;;;8;4.9;;;;;;;11.95;76.45215;939.0269;;;;
2023/05/30 00:52:18;;;;;;;6.8;4.8;;;;;;;11.95;76.30176;939.062;;;;
2023/05/30 00:54:43;;;;;;;7.9;5;;;;;;;11.84;76.93359;939.0566;;;;
2023/05/30 00:57:10;;;;;;;6;4.5;;;;;;;11.69;76.66797;939.0614;;;;
2023/05/30 00:59:35;;;;;;;8.1;5.4;;;;;;;11.66;77.37305;939.0581;;;;
2023/05/30 01:02:05;;;;;;;7.6;5;;;;;;;11.79;76.7998;939.06;;;;
2023/05/30 01:04:32;;;;;;;6.4;4.7;;;;;;;11.76;76.88672;939.0563;;;;
2023/05/30 01:06:55;;;;;;;6.9;5;;;;;;;11.77;77.00293;939.0667;;;;
2023/05/30 01:09:25;;;;;;;6.8;4.9;;;;;;;11.64;76.6709;939.1058;;;;
2023/05/30 01:11:50;;;;;;;11;5.4;;;;;;;11.76;76.16504;939.0986;;;;
2023/05/30 01:14:17;;;;;;;11.2;5.3;;;;;;;11.75;76.01465;939.0634;;;;
2023/05/30 01:16:42;;;;;;;7.7;4.8;;;;;;;11.72;76.02148;939.0768;;;;
2023/05/30 01:19:07;;;;;;;7.5;4.9;;;;;;;11.27;77.71484;939.2173;;;;
2023/05/30 01:21:34;;;;;;;8;4.9;;;;;;;11.13;78.70703;939.1561;;;;
2023/05/30 01:24:02;;;;;;;7.3;4.6;;;;;;;11.14;78.53711;939.1339;;;;
2023/05/30 01:26:27;;;;;;;6.5;4.5;;;;;;;11.08;78.25098;939.0854;;;;
2023/05/30 01:28:54;;;;;;;9.3;5.3;;;;;;;11.11;78.00586;939.0842;;;;
2023/05/30 01:31:19;;;;;;;7.6;5.1;;;;;;;11.2;78.54688;939.12;;;;
2023/05/30 01:33:45;;;;;;;8.2;4.6;;;;;;;11.34;77.7627;939.0983;;;;
2023/05/30 01:36:10;;;;;;;6.9;4.5;;;;;;;11.29;77.4668;939.0947;;;;
2023/05/30 01:38:39;;;;;;;9;5.1;;;;;;;11.25;77.70996;939.1167;;;;
2023/05/30 01:41:04;;;;;;;8.7;5.1;;;;;;;11.22;77.95703;939.142;;;;
2023/05/30 01:43:34;;;;;;;6.3;4.5;;;;;;;11.2;77.92969;939.116;;;;
2023/05/30 01:46:02;;;;;;;8.2;4.6;;;;;;;11.16;77.68262;939.091;;;;
2023/05/30 01:48:28;;;;;;;6;4.7;;;;;;;11.07;78.15918;939.1023;;;;
2023/05/30 01:50:53;;;;;;;6.7;4.8;;;;;;;11.16;78.03711;939.1277;;;;
2023/05/30 01:53:18;;;;;;;7.6;4.5;;;;;;;11.15;77.85254;939.1786;;;;
2023/05/30 01:55:44;;;;;;;7.4;4.5;;;;;;;11.13;77.94043;939.1401;;;;
2023/05/30 01:58:08;;;;;;;9;5.1;;;;;;;11.07;78.22656;939.1914;;;;
2023/05/30 02:00:33;;;;;;;7.3;5.1;;;;;;;11.09;78.1748;939.1302;;;;
2023/05/30 02:03:06;;;;;;;7.7;4.6;;;;;;;11.06;78.12207;939.1674;;;;
2023/05/30 02:05:35;;;;;;;8.2;4.8;;;;;;;11.05;78.12988;939.1473;;;;
2023/05/30 02:08:06;;;;;;;9;4.9;;;;;;;10.93;79.11621;939.1803;;;;
2023/05/30 02:10:31;;;;;;;6.5;4.7;;;;;;;10.87;79.00195;939.1925;;;;
2023/05/30 02:12:58;;;;;;;7.7;5.2;;;;;;;10.76;79.35938;939.1711;;;;
2023/05/30 02:15:25;;;;;;;6.7;5;;;;;;;10.56;80.44141;939.1298;;;;
2023/05/30 02:17:54;;;;;;;7.1;5;;;;;;;10.7;79.93164;939.1674;;;;
2023/05/30 02:20:25;;;;;;;8.4;5.1;;;;;;;10.82;79.32324;939.1554;;;;
2023/05/30 02:22:50;;;;;;;7.6;4.7;;;;;;;10.63;80.00977;939.1022;;;;
2023/05/30 02:25:20;;;;;;;7.1;5;;;;;;;10.48;80.81445;939.1042;;;;
2023/05/30 02:27:47;;;;;;;6.2;4.7;;;;;;;10.63;80.00977;939.1238;;;;
2023/05/30 02:30:12;;;;;;;5.5;4.5;;;;;;;10.5;80.76074;939.0829;;;;
2023/05/30 02:32:41;;;;;;;7.7;4.9;;;;;;;10.38;80.7959;939.1753;;;;
2023/05/30 02:35:14;;;;;;;6.9;4.9;;;;;;;10.27;81.74609;939.1868;;;;
2023/05/30 02:37:39;;;;;;;7.4;4.7;;;;;;;10.51;80.79688;939.1221;;;;
2023/05/30 02:40:10;;;;;;;6.7;4.6;;;;;;;10.65;80.09277;939.1486;;;;
2023/05/30 02:42:42;;;;;;;6.5;4.8;;;;;;;10.72;79.64746;939.1445;;;;
2023/05/30 02:45:16;;;;;;;7.8;4.8;;;;;;;10.77;79.63379;939.1473;;;;
2023/05/30 02:47:46;;;;;;;7.2;4.7;;;;;;;10.62;80.00684;939.1642;;;;
2023/05/30 02:52:48;;;;;;;6.5;4.4;;;;;;;10.5;80.43164;939.1953;;;;
2023/05/30 02:55:14;;;;;;;6.5;4.9;;;;;;;10.51;80.31738;939.1922;;;;
2023/05/30 02:57:46;;;;;;;7.9;4.7;;;;;;;10.5;81.21973;939.2296;;;;
2023/05/30 03:00:15;;;;;;;9.6;5.3;;;;;;;10.55;80.60938;939.2269;;;;
2023/05/30 03:02:46;;;;;;;8.5;5.1;;;;;;;10.32;81.17285;939.247;;;;
2023/05/30 03:05:19;;;;;;;8.3;5.4;;;;;;;10.21;81.49414;939.2351;;;;
2023/05/30 03:07:45;;;;;;;8.5;5;;;;;;;9.94;82.1748;939.1611;;;;
2023/05/30 03:10:11;;;;;;;6.1;4.5;;;;;;;9.82;83.08496;939.166;;;;
2023/05/30 03:12:38;;;;;;;7.6;4.7;;;;;;;9.89;82.76855;939.1843;;;;
2023/05/30 03:15:04;;;;;;;7.4;4.6;;;;;;;9.97;82.49902;939.2483;;;;
2023/05/30 03:17:32;;;;;;;8.1;4.9;;;;;;;9.99;82.49316;939.2612;;;;
2023/05/30 03:19:57;;;;;;;7.4;4.8;;;;;;;10.23;81.62305;939.2015;;;;
2023/05/30 03:22:24;;;;;;;9.1;5.2;;;;;;;10.36;80.89551;939.2356;;;;
2023/05/30 03:24:50;;;;;;;6.2;4.9;;;;;;;10.46;80.42188;939.2283;;;;
2023/05/30 03:27:16;;;;;;;7.2;4.7;;;;;;;10.37;80.88574;939.2739;;;;
2023/05/30 03:29:42;;;;;;;8.5;5.1;;;;;;;10.45;80.35352;939.2927;;;;
2023/05/30 03:32:08;;;;;;;7.2;4.9;;;;;;;10.46;80.22754;939.2513;;;;
2023/05/30 03:34:33;;;;;;;7.3;4.7;;;;;;;10.31;80.80566;939.3035;;;;
2023/05/30 03:37:02;;;;;;;8.3;4.9;;;;;;;10.27;81.35645;939.3714;;;;
2023/05/30 03:39:28;;;;;;;11;5.2;;;;;;;9.93;82.53613;939.3575;;;;
2023/05/30 03:41:53;;;;;;;8.4;5.2;;;;;;;9.79;83.52441;939.2383;;;;
2023/05/30 03:44:21;;;;;;;9.2;5.2;;;;;;;9.85;83.4209;939.2816;;;;
2023/05/30 03:46:43;;;;;;;9.2;5.4;;;;;;;9.79;83.93457;939.3004;;;;
2023/05/30 03:49:11;;;;;;;7;5;;;;;;;10.07;82.68945;939.3198;;;;
2023/05/30 03:51:37;;;;;;;7.7;5.2;;;;;;;10.08;82.41699;939.2459;;;;
2023/05/30 03:54:03;;;;;;;8.9;4.9;;;;;;;10.2;81.92578;939.2872;;;;
2023/05/30 03:56:28;;;;;;;8.7;5.1;;;;;;;10.29;81.64453;939.3016;;;;
2023/05/30 03:58:54;;;;;;;8.5;5.2;;;;;;;10.41;81.31445;939.2819;;;;
2023/05/30 04:02:31;;;;;;;9;5.1;;;;;;;10.51;80.74023;939.2598;;;;
2023/05/30 04:04:56;;;;;;;6.8;4.9;;;;;;;10.44;81.15039;939.326;;;;
2023/05/30 04:07:28;;;;;;;6.9;5;;;;;;;10.59;80.74414;939.3308;;;;
2023/05/30 04:09:56;;;;;;;7.2;5.1;;;;;;;10.73;80.25781;939.3469;;;;
2023/05/30 04:12:21;;;;;;;6.6;5.1;;;;;;;10.81;79.91797;939.3154;;;;
2023/05/30 04:14:50;;;;;;;8.5;5;;;;;;;10.88;79.50684;939.3447;;;;
2023/05/30 04:17:15;;;;;;;6.8;5.1;;;;;;;11.01;78.82227;939.3253;;;;
2023/05/30 04:19:44;;;;;;;8;5;;;;;;;11.09;78.02539;939.253;;;;
2023/05/30 04:22:09;;;;;;;7.1;4.8;;;;;;;11.05;78.56836;939.2838;;;;
2023/05/30 04:24:34;;;;;;;12.1;5.6;;;;;;;11.18;78.12012;939.2928;;;;
2023/05/30 04:27:02;;;;;;;10.3;5.5;;;;;;;11.15;78.08105;939.3116;;;;
2023/05/30 04:29:26;;;;;;;10.6;5.1;;;;;;;10.94;78.86621;939.3805;;;;
2023/05/30 04:31:52;;;;;;;7.3;4.8;;;;;;;10.84;79.41992;939.3666;;;;
2023/05/30 04:34:18;;;;;;;7;4.9;;;;;;;11.01;79.1543;939.3085;;;;
2023/05/30 04:36:46;;;;;;;7.4;4.7;;;;;;;11.11;78.37402;939.3544;;;;
2023/05/30 04:39:11;;;;;;;8.3;5;;;;;;;11.29;77.78711;939.3499;;;;
2023/05/30 04:41:40;;;;;;;8.2;4.7;;;;;;;11.25;77.72168;939.3894;;;;
2023/05/30 04:44:03;;;;;;;5.5;4.4;;;;;;;11.11;77.86914;939.2675;;;;
2023/05/30 04:46:29;;;;;;;6.9;4.5;;;;;;;11;78.55762;939.4137;;;;
2023/05/30 04:48:55;;;;;;;6.2;4.6;;;;;;;11.15;78.7334;939.3499;;;;
2023/05/30 04:51:21;;;;;;;7;5.2;;;;;;;11.29;78.79395;939.4614;;;;
2023/05/30 04:53:46;;;;;;;8.5;5.2;;;;;;;11.52;77.97754;939.387;;;;
2023/05/30 04:56:13;;;;;;;7;4.9;;;;;;;11.34;77.30469;939.4578;;;;
2023/05/30 04:58:38;;;;;;;9;5.3;;;;;;;11.51;77.06934;939.4794;;;;
2023/05/30 05:01:09;;;;;;;6.7;4.9;;;;;;;11.57;77.23242;939.468;;;;
2023/05/30 05:03:31;;;;;;;8.4;5.2;;;;;;;11.73;76.19531;939.4725;;;;
2023/05/30 05:05:59;;;;;;;6.7;4.6;;;;;;;12.03;74.35645;939.4705;;;;
2023/05/30 05:08:26;;;;;;;7.1;4.9;;;;;;;12.11;74.30176;939.348;;;;
2023/05/30 05:10:54;;;;;;;7.6;4.3;;;;;;;12.24;74.2666;939.4408;;;;
2023/05/30 05:13:19;;;;;;;8.1;5.1;;;;;;;12.45;73.51172;939.4572;;;;
2023/05/30 05:15:47;;;;;;;10.2;5;;;;;;;12.66;73.88965;939.4094;;;;
2023/05/30 05:18:17;;;;;;;9;5;;;;;;;12.96;72.62012;939.4194;;;;
2023/05/30 05:21:21;;;;;;;8.5;5.1;;;;;;;13.15;72.29688;939.4224;;;;
2023/05/30 05:23:50;;;;;;;9.9;5;;;;;;;13.6;71.78418;939.4219;;;;
2023/05/30 05:26:15;;;;;;;8.5;4.9;;;;;;;14.03;68.56348;939.4678;;;;
2023/05/30 05:28:43;;;;;;;8.3;4.6;;;;;;;14.14;67.98242;939.5109;;;;
2023/05/30 05:31:08;;;;;;;8.6;4.8;;;;;;;14.36;66.63379;939.5009;;;;
2023/05/30 05:33:37;;;;;;;10.4;5.4;;;;;;;14.57;66.58594;939.5641;;;;
2023/05/30 05:36:02;;;;;;;7;4.5;;;;;;;14.56;67.17285;939.5793;;;;
2023/05/30 05:38:27;;;;;;;7.4;4.7;;;;;;;14.64;67.92285;939.5769;;;;
2023/05/30 05:40:56;;;;;;;6;4.3;;;;;;;14.6;68.08887;939.6497;;;;
2023/05/30 05:43:22;;;;;;;7.8;4.6;;;;;;;14.59;67.88086;939.6561;;;;
2023/05/30 05:45:52;;;;;;;8.5;4.4;;;;;;;14.59;67.14258;939.657;;;;
2023/05/30 05:48:17;;;;;;;9.2;4.6;;;;;;;14.53;67.61816;939.6628;;;;
2023/05/30 05:50:43;;;;;;;8.7;4.6;;;;;;;14.6;68.52637;939.6369;;;;
2023/05/30 05:53:09;;;;;;;7;4.7;;;;;;;14.54;70.43066;939.6603;;;;
2023/05/30 05:55:38;;;;;;;8.4;4.8;;;;;;;14.3;72.56836;939.6141;;;;
2023/05/30 05:58:09;;;;;;;10.4;5.6;;;;;;;14.46;71.72949;939.6839;;;;
2023/05/30 06:00:41;;;;;;;11;6.6;;;;;;;14.68;69.78613;939.7114;;;;
2023/05/30 06:03:07;;;;;;;9.7;6.4;;;;;;;14.59;70.87598;939.7411;;;;
2023/05/30 06:05:31;;;;;;;8;5.9;;;;;;;14.74;71.83398;939.6767;;;;
2023/05/30 06:08:01;;;;;;;8.7;6;;;;;;;14.87;69.5498;939.7357;;;;
2023/05/30 06:10:31;;;;;;;9.8;5.5;;;;;;;14.92;67.84961;939.7507;;;;
2023/05/30 06:12:56;;;;;;;8.1;5.4;;;;;;;15.2;66.99414;939.7198;;;;
2023/05/30 06:15:26;;;;;;;9.3;5.6;;;;;;;15.44;66.91504;939.7253;;;;
2023/05/30 06:17:54;;;;;;;7.9;5.2;;;;;;;15.91;64.45605;939.7072;;;;
2023/05/30 06:20:19;;;;;;;8.8;5.1;;;;;;;16.38;61.80664;939.6976;;;;
2023/05/30 06:22:46;;;;;;;8.4;5.5;;;;;;;16.45;61.54883;939.7229;;;;
2023/05/30 06:25:11;;;;;;;9.5;4.9;;;;;;;16.54;61.28418;939.6833;;;;
2023/05/30 06:27:40;;;;;;;7.5;4.8;;;;;;;16.46;61.5166;939.7372;;;;
2023/05/30 06:30:05;;;;;;;9.7;5.4;;;;;;;16.19;64.63477;939.7787;;;;
2023/05/30 06:32:30;;;;;;;7.5;5.4;;;;;;;15.92;65.64746;939.7858;;;;
2023/05/30 06:35:39;;;;;;;6.8;4.9;;;;;;;15.67;67.34375;939.79;;;;
2023/05/30 06:38:04;;;;;;;8.7;4.9;;;;;;;15.57;67.38477;939.8351;;;;
2023/05/30 06:40:33;;;;;;;8.7;4.9;;;;;;;15.79;66.8877;939.8228;;;;
2023/05/30 06:42:58;;;;;;;6.6;4.5;;;;;;;16.75;63.17773;939.7883;;;;
2023/05/30 06:45:24;;;;;;;7.6;4.6;;;;;;;18.5;57.41895;939.7082;;;;
2023/05/30 06:47:51;;;;;;;7.1;4.3;;;;;;;20.24;51.08496;939.694;;;;
2023/05/30 06:50:17;;;;;;;7.1;4.5;;;;;;;21.39;49.08691;939.6828;;;;
2023/05/30 06:52:44;;;;;;;7.1;4.6;;;;;;;23.02;42.67773;939.7045;;;;
2023/05/30 06:55:09;;;;;;;5;3.9;;;;;;;22.47;43.08203;939.6703;;;;
2023/05/30 06:57:36;;;;;;;6.2;4;;;;;;;21.26;44.7666;939.6485;;;;
2023/05/30 07:00:00;;;;;;;7.6;3.8;;;;;;;21.47;45.24316;939.6281;;;;
2023/05/30 07:02:28;;;;;;;5.5;4;;;;;;;21.64;44.24316;939.5972;;;;
2023/05/30 07:04:53;;;;;;;6.8;4;;;;;;;22;43.20117;939.5964;;;;
2023/05/30 07:07:24;;;;;;;7.7;3.8;;;;;;;22.36;42.15723;939.587;;;;
2023/05/30 07:09:53;;;;;;;7.5;4.2;;;;;;;23.27;41.50195;939.632;;;;
2023/05/30 07:12:17;;;;;;;5.6;3.6;;;;;;;24.39;39.68652;939.5323;;;;
2023/05/30 07:14:45;;;;;;;5.4;3.8;;;;;;;24.71;37.86426;939.4753;;;;
2023/05/30 07:17:10;;;;;;;5;3.6;;;;;;;26.07;35.41211;939.4464;;;;
2023/05/30 07:19:38;;;;;;;7.7;3.8;;;;;;;24.99;36.42383;939.3748;;;;
2023/05/30 07:22:03;;;;;;;5.2;3.8;;;;;;;25.05;36.16992;939.4232;;;;
2023/05/30 07:24:29;;;;;;;6.8;3.9;;;;;;;24.84;36.19922;939.3911;;;;
2023/05/30 07:26:54;;;;;;;6.7;4;;;;;;;25.74;35.97656;939.3696;;;;
2023/05/30 07:29:21;;;;;;;5;4.1;;;;;;;25.38;34.97949;939.3596;;;;
2023/05/30 07:31:47;;;;;;;6.9;3.8;;;;;;;26.64;33.92969;939.3414;;;;
2023/05/30 07:34:14;;;;;;;5.1;3.7;;;;;;;27.68;34.3877;939.3195;;;;
2023/05/30 07:36:39;;;;;;;5;3.8;;;;;;;26.97;32.7334;939.3134;;;;
2023/05/30 07:39:08;;;;;;;5.4;3.6;;;;;;;24.37;35.78418;939.2347;;;;
2023/05/30 07:41:33;;;;;;;4.9;3.6;;;;;;;25.97;35.8418;939.195;;;;
2023/05/30 07:44:01;;;;;;;6.9;4;;;;;;;26.27;33.27441;939.1371;;;;
2023/05/30 07:46:26;;;;;;;5.1;3.6;;;;;;;26.13;35.83105;939.14;;;;
2023/05/30 07:48:52;;;;;;;6.5;4.1;;;;;;;25.11;35.67871;939.1545;;;;
2023/05/30 07:51:20;;;;;;;5.3;3.8;;;;;;;22.3;40.02832;939.2078;;;;
2023/05/30 07:53:46;;;;;;;5.3;3.8;;;;;;;22.2;40.20703;939.1867;;;;
2023/05/30 07:56:11;;;;;;;11.7;4;;;;;;;22.48;39.22266;939.1797;;;;
2023/05/30 07:58:38;;;;;;;8.9;3.8;;;;;;;23.25;38.97363;939.1891;;;;
2023/05/30 08:01:03;;;;;;;5.1;3.9;;;;;;;24.39;36.78809;939.1415;;;;
2023/05/30 08:03:33;;;;;;;5.7;3.7;;;;;;;25.73;37.05273;939.0762;;;;
2023/05/30 08:05:58;;;;;;;5;3.3;;;;;;;25.95;35.85156;939.1011;;;;
2023/05/30 08:08:25;;;;;;;6.4;4.2;;;;;;;26.34;37.88379;939.1019;;;;
2023/05/30 08:10:50;;;;;;;6.1;4;;;;;;;27.7;33.81934;939.1158;;;;
2023/05/30 08:13:17;;;;;;;5.3;3.5;;;;;;;28.09;33.46875;939.1047;;;;
2023/05/30 08:15:43;;;;;;;5.1;3.8;;;;;;;28.38;30.45801;939.0361;;;;
2023/05/30 08:18:08;;;;;;;4.8;3.6;;;;;;;28.93;30.24609;939.0481;;;;
2023/05/30 08:20:32;;;;;;;4.8;3.8;;;;;;;30.21;30.75;939.0675;;;;
2023/05/30 08:22:59;;;;;;;5.2;3.9;;;;;;;29.4;30.01465;939.0628;;;;
2023/05/30 08:25:24;;;;;;;6.9;3.7;;;;;;;28.84;31.69238;939.0527;;;;
2023/05/30 08:27:54;;;;;;;5.3;3.4;;;;;;;26.82;34.51172;939.0547;;;;
2023/05/30 08:30:19;;;;;;;8.4;4.3;;;;;;;26.03;36.95898;939.0229;;;;
2023/05/30 08:32:44;;;;;;;6.2;3.7;;;;;;;27.13;34.79688;939.0208;;;;
2023/05/30 08:35:09;;;;;;;6.2;3.7;;;;;;;27.31;35.77148;939.0517;;;;
2023/05/30 08:37:34;;;;;;;6.1;3.6;;;;;;;27.31;34.57324;938.9968;;;;
2023/05/30 08:40:02;;;;;;;5.6;3.5;;;;;;;26.73;36.88574;939.0042;;;;
2023/05/30 08:42:27;;;;;;;6.1;3.7;;;;;;;26.14;38.73047;939.0511;;;;
2023/05/30 08:44:54;;;;;;;5.7;3.8;;;;;;;27.8;35.00293;939.0606;;;;
2023/05/30 08:47:19;;;;;;;6.3;3.7;;;;;;;27.45;35.02246;939.1008;;;;
2023/05/30 08:49:46;;;;;;;6.1;3.8;;;;;;;26.39;35.92285;939.0508;;;;
2023/05/30 08:52:11;;;;;;;7.5;3.7;;;;;;;27.27;35.10449;939.0772;;;;
2023/05/30 08:54:37;;;;;;;5.3;3.6;;;;;;;27.14;33.94336;939.0859;;;;
2023/05/30 08:57:03;;;;;;;5.9;4;;;;;;;26.34;35.31445;939.0848;;;;
2023/05/30 08:59:27;;;;;;;5.1;3.9;;;;;;;24.4;39.75781;939.1082;;;;
2023/05/30 09:01:55;;;;;;;6.5;4.3;;;;;;;21.69;45.53711;939.0086;;;;
2023/05/30 09:04:20;;;;;;;6;3.9;;;;;;;21.34;48.96387;939.0322;;;;
2023/05/30 09:06:49;;;;;;;6.6;4.3;;;;;;;22.38;44.64551;939.0411;;;;
2023/05/30 09:09:15;;;;;;;7;3.7;;;;;;;23.36;44.17969;938.9636;;;;
2023/05/30 09:11:39;;;;;;;6.3;3.9;;;;;;;23.67;43.17578;939.0514;;;;
2023/05/30 09:14:07;;;;;;;6.8;3.5;;;;;;;22.31;46.53809;938.9641;;;;
2023/05/30 09:16:32;;;;;;;10.8;3.9;;;;;;;22.53;49.07324;938.9192;;;;
2023/05/30 09:18:57;;;;;;;5.1;3.7;;;;;;;24.28;43.58691;938.9272;;;;
2023/05/30 09:21:27;;;;;;;4.9;3.6;;;;;;;25.12;40.19922;938.9213;;;;
2023/05/30 09:23:57;;;;;;;6.4;3.6;;;;;;;25.57;42.55566;938.9006;;;;
2023/05/30 09:26:23;;;;;;;5.9;3.7;;;;;;;25.45;40.6543;938.9528;;;;
2023/05/30 09:28:48;;;;;;;5.1;3.4;;;;;;;27.23;38.88379;939.0237;;;;
2023/05/30 09:31:14;;;;;;;5.6;4.3;;;;;;;28.24;34.96484;938.9177;;;;
2023/05/30 09:33:41;;;;;;;5.1;3.6;;;;;;;29.06;33.6123;938.9128;;;;
2023/05/30 09:36:07;;;;;;;4.7;3.5;;;;;;;28.21;35.04688;938.9581;;;;
2023/05/30 09:38:35;;;;;;;5.3;3.7;;;;;;;28.48;34.42578;938.8734;;;;
2023/05/30 09:41:00;;;;;;;6;3.7;;;;;;;28.53;33.78711;938.9035;;;;
2023/05/30 09:43:27;;;;;;;4;3.4;;;;;;;27.48;38.00391;938.9199;;;;
2023/05/30 09:45:52;;;;;;;5.9;3.9;;;;;;;26.75;38.94922;938.928;;;;
2023/05/30 09:48:17;;;;;;;5.9;3.3;;;;;;;27.17;38.7002;938.9332;;;;
2023/05/30 09:50:47;;;;;;;5.1;3.6;;;;;;;26.69;40.24609;938.9093;;;;
2023/05/30 09:53:17;;;;;;;5.1;3.7;;;;;;;26.29;40.69531;938.9264;;;;
2023/05/30 09:55:42;;;;;;;7.1;4.3;;;;;;;24.34;45.4668;938.9158;;;;
2023/05/30 09:58:09;;;;;;;6.6;3.8;;;;;;;25.36;42.18164;938.9169;;;;
2023/05/30 10:00:34;;;;;;;6.1;3.9;;;;;;;25.54;42.29199;938.886;;;;
2023/05/30 10:03:08;;;;;;;7.7;3.9;;;;;;;24.03;44.83496;938.9276;;;;
2023/05/30 10:05:34;;;;;;;9;3.8;;;;;;;24.5;43.4082;938.9135;;;;
2023/05/30 10:07:59;;;;;;;6.4;4.1;;;;;;;24.06;47.4873;938.8978;;;;
2023/05/30 10:10:25;;;;;;;6.2;4;;;;;;;24.05;46.85059;938.847;;;;
2023/05/30 10:12:50;;;;;;;7.5;4.6;;;;;;;23.51;47.09961;938.8501;;;;
2023/05/30 10:15:19;;;;;;;7;4.3;;;;;;;23.89;49.65918;938.8289;;;;
2023/05/30 10:17:43;;;;;;;6.4;3.8;;;;;;;24.39;45.21289;938.829;;;;
2023/05/30 10:20:08;;;;;;;6.9;4.3;;;;;;;23.93;46.95508;938.8315;;;;
2023/05/30 10:22:39;;;;;;;6.4;4.5;;;;;;;23.95;49.68945;938.8068;;;;
2023/05/30 10:25:01;;;;;;;6.3;4.1;;;;;;;23.64;46.7373;938.772;;;;
2023/05/30 10:27:33;;;;;;;5.5;4;;;;;;;23.76;49.30273;938.7241;;;;
2023/05/30 10:30:00;;;;;;;5.5;3.8;;;;;;;24.34;47.23438;938.7379;;;;
2023/05/30 10:32:25;;;;;;;6.8;4;;;;;;;23.98;45.75977;938.6756;;;;
2023/05/30 10:34:56;;;;;;;5.6;4;;;;;;;24.23;46.56445;938.7403;;;;
2023/05/30 10:37:21;;;;;;;6.1;4.2;;;;;;;23.71;47.68457;938.7612;;;;
2023/05/30 10:39:49;;;;;;;6.8;4.3;;;;;;;23.11;48.62012;938.6965;;;;
2023/05/30 10:42:19;;;;;;;8.1;4.7;;;;;;;22.47;51.57715;938.6689;;;;
2023/05/30 10:44:44;;;;;;;5.7;3.9;;;;;;;22.36;53.05273;938.7181;;;;
2023/05/30 10:47:13;;;;;;;8.1;4.1;;;;;;;22.46;50.53125;938.7033;;;;
2023/05/30 10:49:39;;;;;;;7.3;3.9;;;;;;;22.47;49.57031;938.6559;;;;
2023/05/30 10:52:07;;;;;;;7.5;3.9;;;;;;;22.43;47.11328;938.6526;;;;
2023/05/30 10:54:32;;;;;;;6.4;4;;;;;;;22.38;49.74805;938.6558;;;;
2023/05/30 10:57:00;;;;;;;7.2;4.4;;;;;;;22.56;47.16309;938.5918;;;;
2023/05/30 10:59:24;;;;;;;5.2;3.8;;;;;;;22.48;45.65234;938.6103;;;;
2023/05/30 11:01:49;;;;;;;5.6;3.8;;;;;;;22.35;47.30566;938.5795;;;;
2023/05/30 11:04:14;;;;;;;7.4;4.2;;;;;;;22.41;45.58789;938.6292;;;;
2023/05/30 11:06:39;;;;;;;6.3;4.5;;;;;;;22.27;46.62793;938.6301;;;;
2023/05/30 11:09:04;;;;;;;5.3;3.8;;;;;;;22.2;47.3125;938.6163;;;;
2023/05/30 11:11:31;;;;;;;5.9;4;;;;;;;22.17;47.13379;938.6141;;;;
2023/05/30 11:13:56;;;;;;;6.9;4.2;;;;;;;22.26;45.75879;938.6387;;;;
2023/05/30 11:16:24;;;;;;;6.7;3.9;;;;;;;22.26;44.5625;938.6544;;;;
2023/05/30 11:18:55;;;;;;;6.8;4.1;;;;;;;22.16;44.82227;938.5966;;;;
2023/05/30 11:21:20;;;;;;;5.3;3.6;;;;;;;22.2;45.19043;938.4824;;;;
2023/05/30 11:23:45;;;;;;;5.5;3.8;;;;;;;22.25;49.10059;938.5595;;;;
2023/05/30 11:26:11;;;;;;;7.2;3.9;;;;;;;22.45;47.70313;938.5228;;;;
2023/05/30 11:28:36;;;;;;;6.6;4.4;;;;;;;22.39;47.16797;938.5792;;;;
2023/05/30 11:31:01;;;;;;;8.1;4.3;;;;;;;21.75;49.81836;938.5187;;;;
2023/05/30 11:33:26;;;;;;;4.9;3.7;;;;;;;21.73;50.35449;938.4813;;;;
2023/05/30 11:35:55;;;;;;;7.7;4.4;;;;;;;21.79;49.12012;938.3851;;;;
2023/05/30 11:38:20;;;;;;;9.2;4.3;;;;;;;21.64;48.91602;938.4088;;;;
2023/05/30 11:40:47;;;;;;;6.9;4.1;;;;;;;21.52;50.0498;938.4537;;;;
2023/05/30 11:43:12;;;;;;;10.5;3.8;;;;;;;21.19;50.48047;938.4529;;;;
2023/05/30 11:45:40;;;;;;;7.5;4.1;;;;;;;21.36;48.46387;938.3721;;;;
2023/05/30 11:48:05;;;;;;;6.1;4.2;;;;;;;21.66;48.30859;938.4083;;;;
2023/05/30 11:50:35;;;;;;;6.7;4.2;;;;;;;21.84;49.60547;938.3814;;;;
2023/05/30 11:53:00;;;;;;;7.3;4.4;;;;;;;22.1;48.81445;938.3627;;;;
2023/05/30 11:55:27;;;;;;;8.3;4.3;;;;;;;22.13;47.46973;938.3144;;;;
2023/05/30 11:57:53;;;;;;;7.2;3.8;;;;;;;22.02;51.25488;938.3024;;;;
2023/05/30 12:00:22;;;;;;;5.2;4.1;;;;;;;21.9;48.27637;938.317;;;;
2023/05/30 12:02:53;;;;;;;7.5;4.4;;;;;;;22.05;46.46387;938.3464;;;;
2023/05/30 12:05:24;;;;;;;5.4;3.5;;;;;;;22.42;46.44434;938.359;;;;
2023/05/30 12:07:50;;;;;;;6.2;4;;;;;;;22.19;48.40137;938.4099;;;;
2023/05/30 12:10:14;;;;;;;5.2;3.4;;;;;;;22.05;48.92578;938.3546;;;;
2023/05/30 12:12:39;;;;;;;5.8;4;;;;;;;22.37;48.51563;938.3769;;;;
2023/05/30 12:15:14;;;;;;;6.7;3.5;;;;;;;23.04;45.45215;938.2761;;;;
2023/05/30 12:17:45;;;;;;;6;3.4;;;;;;;23.26;44.20508;938.2252;;;;
2023/05/30 12:20:09;;;;;;;4.4;3.1;;;;;;;23.42;43.62109;938.2809;;;;
2023/05/30 12:22:33;;;;;;;5.1;3.3;;;;;;;23.6;41.6748;938.2653;;;;
2023/05/30 12:24:57;;;;;;;6.1;3.8;;;;;;;23.23;43.67285;938.2658;;;;
2023/05/30 12:27:27;;;;;;;5.4;3.8;;;;;;;23.75;41.78223;938.241;;;;
2023/05/30 12:29:55;;;;;;;6.3;3.8;;;;;;;24.25;39.3916;938.1153;;;;
2023/05/30 12:32:20;;;;;;;6.4;3.2;;;;;;;23.76;42.38281;938.1876;;;;
2023/05/30 12:34:48;;;;;;;5.8;3.5;;;;;;;23.26;45.72168;938.2508;;;;
2023/05/30 12:37:13;;;;;;;5.6;3.6;;;;;;;23.91;43.5752;938.1589;;;;
2023/05/30 12:39:39;;;;;;;4.2;3.1;;;;;;;24.42;40.44238;938.188;;;;
2023/05/30 12:42:04;;;;;;;5.8;3.3;;;;;;;24.75;39.21094;938.1689;;;;
2023/05/30 12:44:31;;;;;;;3.9;3.1;;;;;;;24.48;39.6709;938.1335;;;;
2023/05/30 12:46:56;;;;;;;6.2;3.5;;;;;;;23.98;43.91113;938.2175;;;;
2023/05/30 12:49:23;;;;;;;5;3.2;;;;;;;24.25;40.12109;938.2123;;;;
2023/05/30 12:51:48;;;;;;;4.1;3.2;;;;;;;23.58;41.98926;938.1494;;;;
2023/05/30 12:54:15;;;;;;;6.9;3.7;;;;;;;22.98;41.74512;938.1135;;;;
2023/05/30 12:56:40;;;;;;;5.1;3.3;;;;;;;21.89;43.06055;938.1911;;;;
2023/05/30 12:59:08;;;;;;;6.2;3.6;;;;;;;22.13;41.87695;938.2422;;;;
2023/05/30 13:01:33;;;;;;;6.8;3.6;;;;;;;22.26;42.18262;938.2037;;;;
2023/05/30 13:03:58;;;;;;;5.3;3.4;;;;;;;22.03;44.37598;938.261;;;;
2023/05/30 13:06:26;;;;;;;5;3.3;;;;;;;22.27;44.64648;938.2245;;;;
2023/05/30 13:08:51;;;;;;;3.8;3;;;;;;;22.37;44.76172;938.1699;;;;
2023/05/30 13:11:16;;;;;;;5.4;3.1;;;;;;;22.23;42.42578;938.1865;;;;
2023/05/30 13:13:45;;;;;;;6.1;3.3;;;;;;;22.57;42.07031;938.1273;;;;
2023/05/30 13:16:11;;;;;;;5.1;3;;;;;;;22.91;40.43555;938.0641;;;;
2023/05/30 13:18:39;;;;;;;5.7;3.3;;;;;;;22.94;40.20313;938.1133;;;;
2023/05/30 13:21:04;;;;;;;6.6;3.8;;;;;;;22.85;41.18066;938.1226;;;;
2023/05/30 13:23:34;;;;;;;5.7;3.3;;;;;;;22.88;40.52734;938.0367;;;;
2023/05/30 13:25:59;;;;;;;4.1;3.1;;;;;;;23;39.98535;938.0144;;;;
2023/05/30 13:28:28;;;;;;;4.4;3.2;;;;;;;22.95;40.19141;938.0563;;;;
2023/05/30 13:30:51;;;;;;;5.2;3.4;;;;;;;23.08;39.93457;938.0538;;;;
2023/05/30 13:33:20;;;;;;;6.7;3.4;;;;;;;22.84;41.77832;938.0197;;;;
2023/05/30 13:35:46;;;;;;;5.5;3.3;;;;;;;23.04;38.91992;938.0593;;;;
2023/05/30 13:38:15;;;;;;;5.8;3.5;;;;;;;23;40.33789;938.0478;;;;
2023/05/30 13:40:40;;;;;;;5;3.4;;;;;;;22.7;42.76465;938.0682;;;;
2023/05/30 13:43:09;;;;;;;6.3;3.5;;;;;;;22.75;40.58496;938.0387;;;;
2023/05/30 13:45:34;;;;;;;6.2;3.5;;;;;;;23.14;38.92871;938.0002;;;;
2023/05/30 13:48:03;;;;;;;4.3;3.4;;;;;;;23.4;41.63281;937.9988;;;;
2023/05/30 13:50:29;;;;;;;5.5;3.2;;;;;;;23.14;39.96289;938.0125;;;;
2023/05/30 13:52:58;;;;;;;5.1;3.6;;;;;;;23.15;38.72949;938.0479;;;;
2023/05/30 13:55:23;;;;;;;7.4;3;;;;;;;23.02;39.37695;938.0345;;;;
2023/05/30 13:57:49;;;;;;;4.9;2.9;;;;;;;23.04;39.54297;938.0878;;;;
2023/05/30 14:00:14;;;;;;;6.6;3;;;;;;;23.06;38.96973;938.0309;;;;
2023/05/30 14:02:40;;;;;;;5.9;2.9;;;;;;;23.4;39.80957;938.0463;;;;
2023/05/30 14:05:05;;;;;;;5.7;2.9;;;;;;;23.49;38.73633;937.9972;;;;
2023/05/30 14:07:39;;;;;;;5.5;3.2;;;;;;;23.56;39.33008;938.014;;;;
2023/05/30 14:10:04;;;;;;;4.8;3;;;;;;;23.4;39.13965;938.0884;;;;
2023/05/30 14:12:32;;;;;;;5.7;2.9;;;;;;;23.23;40.01758;938.1562;;;;
2023/05/30 14:14:57;;;;;;;4.1;2.9;;;;;;;23.1;39.84082;938.11;;;;
2023/05/30 14:17:26;;;;;;;8.1;3.4;;;;;;;22.7;41.20215;938.1739;;;;
2023/05/30 14:19:51;;;;;;;6.1;3.8;;;;;;;22.46;41.02734;938.1322;;;;
2023/05/30 14:22:19;;;;;;;7.6;3.3;;;;;;;22.43;41.01367;938.1104;;;;
2023/05/30 14:24:44;;;;;;;4.3;3.1;;;;;;;22.52;40.54102;938.1648;;;;
2023/05/30 14:27:14;;;;;;;5;3.2;;;;;;;22.4;42.75879;938.104;;;;